createdAt,value
2023-11-08T07:52:35.976Z,6.97
2023-11-08T07:55:03.742Z,7.07
2023-11-08T07:57:31.226Z,6.47
2023-11-08T07:59:58.686Z,6.90
2023-11-08T08:02:26.092Z,7.38
2023-11-08T08:04:55.200Z,7.57
2023-11-08T08:07:22.705Z,5.53
2023-11-08T08:09:50.159Z,5.05
2023-11-08T08:12:17.589Z,5.63
2023-11-08T08:14:45.363Z,5.32
2023-11-08T08:17:14.053Z,5.57
2023-11-08T08:19:42.604Z,5.00
2023-11-08T08:22:10.150Z,4.15
2023-11-08T08:24:37.713Z,4.85
2023-11-08T08:27:05.575Z,4.75
2023-11-08T08:29:33.446Z,4.80
2023-11-08T08:32:01.011Z,3.92
2023-11-08T08:34:31.678Z,3.20
2023-11-08T08:37:00.162Z,3.40
2023-11-08T08:39:29.493Z,3.25
2023-11-08T08:41:58.427Z,2.28
2023-11-08T08:44:26.410Z,3.10
2023-11-08T08:46:53.842Z,3.22
2023-11-08T08:49:23.028Z,2.50
2023-11-08T08:51:51.407Z,2.60
2023-11-08T08:54:22.800Z,2.53
2023-11-08T08:56:51.250Z,2.80
2023-11-08T08:59:18.692Z,2.90
2023-11-08T09:01:46.350Z,2.72
2023-11-08T09:04:14.450Z,2.65
2023-11-08T09:06:42.601Z,2.45
2023-11-08T09:09:13.623Z,2.80
2023-11-08T09:11:41.988Z,2.53
2023-11-08T09:14:10.522Z,2.45
2023-11-08T09:16:39.783Z,3.22
2023-11-08T09:19:10.182Z,3.17
2023-11-08T09:21:39.255Z,2.50
2023-11-08T09:24:08.305Z,2.80
2023-11-08T09:26:41.579Z,2.65
2023-11-08T09:29:09.525Z,3.33
2023-11-08T09:31:39.969Z,2.67
2023-11-08T09:34:08.736Z,2.75
2023-11-08T09:36:40.434Z,2.83
2023-11-08T09:39:10.961Z,2.60
2023-11-08T09:41:39.622Z,2.35
2023-11-08T09:44:09.455Z,2.10
2023-11-08T09:46:39.444Z,2.70
2023-11-08T09:49:07.618Z,2.03
2023-11-08T09:51:36.078Z,2.47
2023-11-08T09:54:04.775Z,2.53
2023-11-08T09:56:35.349Z,2.13
2023-11-08T09:59:03.670Z,2.20
2023-11-08T10:01:38.119Z,2.35
2023-11-08T10:04:06.288Z,2.15
2023-11-08T10:06:36.205Z,1.98
2023-11-08T10:09:07.360Z,2.40
2023-11-08T10:11:37.248Z,2.33
2023-11-08T10:14:04.750Z,2.15
2023-11-08T10:16:55.266Z,2.15
2023-11-08T10:19:49.130Z,2.33
2023-11-08T10:22:24.042Z,2.63
2023-11-08T10:25:04.438Z,1.90
2023-11-08T10:27:35.445Z,2.33
2023-11-08T10:30:22.352Z,2.28
2023-11-08T10:32:50.037Z,2.13
2023-11-08T10:35:22.860Z,1.88
2023-11-08T10:37:51.608Z,2.03
2023-11-08T10:40:22.434Z,2.47
2023-11-08T10:42:56.511Z,2.10
2023-11-08T10:45:25.010Z,1.60
2023-11-08T10:47:52.871Z,1.55
2023-11-08T10:50:21.943Z,1.80
2023-11-08T10:52:49.878Z,1.60
2023-11-08T10:55:17.669Z,1.25
2023-11-08T10:58:02.758Z,1.45
2023-11-08T11:00:32.556Z,1.13
2023-11-08T11:03:13.156Z,1.35
2023-11-08T11:08:20.855Z,1.10
2023-11-08T11:10:49.327Z,1.55
2023-11-08T11:13:51.409Z,1.92
2023-11-08T11:16:34.352Z,2.45
2023-11-08T11:19:13.564Z,1.67
2023-11-08T11:21:54.622Z,2.03
2023-11-08T11:24:34.313Z,1.60
2023-11-08T11:27:05.076Z,1.50
2023-11-08T11:29:33.975Z,2.03
2023-11-08T11:32:05.738Z,1.63
2023-11-08T11:34:38.246Z,1.30
2023-11-08T11:37:17.518Z,1.38
2023-11-08T11:40:09.912Z,1.40
2023-11-08T11:42:37.722Z,1.30
2023-11-08T11:45:06.892Z,1.92
2023-11-08T11:47:38.125Z,1.67
2023-11-08T11:50:10.934Z,1.73
2023-11-08T11:52:40.687Z,1.60
2023-11-08T11:55:11.237Z,1.13
2023-11-08T11:57:39.387Z,1.40
2023-11-08T12:00:12.396Z,1.40
2023-11-08T12:02:40.418Z,1.77
2023-11-08T12:05:08.819Z,0.90
2023-11-08T12:07:39.017Z,1.35
2023-11-08T12:10:13.279Z,1.10
2023-11-08T12:12:45.641Z,1.15
2023-11-08T12:15:23.883Z,1.20
2023-11-08T12:17:55.237Z,0.98
2023-11-08T12:20:25.787Z,1.20
2023-11-08T12:25:22.811Z,0.98
2023-11-08T12:27:58.187Z,1.27
2023-11-08T12:30:27.738Z,1.25
2023-11-08T12:32:58.594Z,1.10
2023-11-08T12:35:27.313Z,0.93
2023-11-08T12:38:00.543Z,0.93
2023-11-08T12:40:29.099Z,1.23
2023-11-08T12:43:55.891Z,1.15
2023-11-08T12:46:35.313Z,1.30
2023-11-08T12:48:38.575Z,0.70
2023-11-08T12:51:11.939Z,0.85
2023-11-08T12:53:46.968Z,0.90
2023-11-08T12:56:14.446Z,0.85
2023-11-08T12:58:42.878Z,0.75
2023-11-08T13:01:20.874Z,0.77
2023-11-08T13:03:48.693Z,1.10
2023-11-08T13:06:16.209Z,1.20
2023-11-08T13:08:54.941Z,1.20
2023-11-08T13:11:22.508Z,0.88
2023-11-08T13:13:50.057Z,1.02
2023-11-08T13:16:17.538Z,0.80
2023-11-08T13:18:45.510Z,1.13
2023-11-08T13:21:13.872Z,1.40
2023-11-08T13:24:01.709Z,1.35
2023-11-08T13:26:28.857Z,0.90
2023-11-08T13:28:57.243Z,1.02
2023-11-08T13:31:24.775Z,1.30
2023-11-08T13:33:52.381Z,1.00
2023-11-08T13:36:27.082Z,1.30
2023-11-08T13:38:55.689Z,0.88
2023-11-08T13:41:23.495Z,0.98
2023-11-08T13:43:51.063Z,1.08
2023-11-08T13:46:18.613Z,1.10
2023-11-08T13:48:46.136Z,1.15
2023-11-08T13:51:13.706Z,1.27
2023-11-08T13:53:41.204Z,1.98
2023-11-08T13:56:08.680Z,1.20
2023-11-08T13:58:37.496Z,1.55
2023-11-08T14:01:11.306Z,1.20
2023-11-08T14:03:40.111Z,0.95
2023-11-08T14:06:09.521Z,1.15
2023-11-08T14:08:38.877Z,1.33
2023-11-08T14:11:06.894Z,1.00
2023-11-08T14:13:34.894Z,1.40
2023-11-08T14:16:02.597Z,1.48
2023-11-08T14:18:30.119Z,1.10
2023-11-08T14:20:57.940Z,1.20
2023-11-08T14:23:25.546Z,1.35
2023-11-08T14:25:53.037Z,1.40
2023-11-08T14:28:20.832Z,1.42
2023-11-08T14:30:48.704Z,1.23
2023-11-08T14:33:18.146Z,1.33
2023-11-08T14:35:45.898Z,1.30
2023-11-08T14:38:14.045Z,1.45
2023-11-08T14:40:41.861Z,1.48
2023-11-08T14:43:11.097Z,1.30
2023-11-08T14:45:38.794Z,1.80
2023-11-08T14:48:07.123Z,1.45
2023-11-08T14:50:34.987Z,1.83
2023-11-08T14:53:03.679Z,1.10
2023-11-08T14:55:31.275Z,1.95
2023-11-08T14:57:58.807Z,1.98
2023-11-08T15:00:27.184Z,1.55
2023-11-08T15:02:57.430Z,2.08
2023-11-08T15:05:25.052Z,3.92
2023-11-08T15:09:47.550Z,2.92
2023-11-08T15:10:40.996Z,2.42
2023-11-08T15:13:08.567Z,2.13
2023-11-08T15:15:36.101Z,2.00
2023-11-08T15:18:03.720Z,1.83
2023-11-08T15:20:31.199Z,1.70
2023-11-08T15:22:58.986Z,1.77
2023-11-08T15:25:26.634Z,1.70
2023-11-08T15:27:54.349Z,1.80
2023-11-08T15:30:21.927Z,2.03
2023-11-08T15:32:49.380Z,1.70
2023-11-08T15:35:16.994Z,1.85
2023-11-08T15:37:44.515Z,2.03
2023-11-08T15:40:14.222Z,2.00
2023-11-08T15:42:41.828Z,1.90
2023-11-08T15:45:10.729Z,1.92
2023-11-08T15:47:38.276Z,2.40
2023-11-08T15:50:06.591Z,2.08
2023-11-08T15:52:34.205Z,1.75
2023-11-08T15:55:01.885Z,1.90
2023-11-08T15:57:29.426Z,2.53
2023-11-08T15:59:57.585Z,2.08
2023-11-08T16:02:25.113Z,2.25
2023-11-08T16:04:52.704Z,2.03
2023-11-08T16:07:20.290Z,1.88
2023-11-08T16:09:47.804Z,2.03
2023-11-08T16:12:15.296Z,1.85
2023-11-08T16:14:43.172Z,2.15
2023-11-08T16:17:10.611Z,2.13
2023-11-08T16:19:38.162Z,2.40
2023-11-08T16:22:05.656Z,2.28
2023-11-08T16:24:33.177Z,2.30
2023-11-08T16:27:00.798Z,2.80
2023-11-08T16:29:50.881Z,2.65
2023-11-08T16:32:35.071Z,2.33
2023-11-08T16:35:03.236Z,2.90
2023-11-08T16:37:31.113Z,2.20
2023-11-08T16:39:58.584Z,2.17
2023-11-08T16:42:26.964Z,2.50
2023-11-08T16:44:54.412Z,2.30
2023-11-08T16:47:23.205Z,2.47
2023-11-08T16:49:52.032Z,2.47
2023-11-08T16:52:20.492Z,3.08
2023-11-08T16:54:47.967Z,2.30
2023-11-08T16:57:15.499Z,2.13
2023-11-08T16:59:42.968Z,2.00
2023-11-08T17:02:10.431Z,2.63
2023-11-08T17:04:41.558Z,2.35
2023-11-08T17:07:09.231Z,2.80
2023-11-08T17:09:38.727Z,2.38
2023-11-08T17:12:07.696Z,2.63
2023-11-08T17:14:36.080Z,2.35
2023-11-08T17:17:03.598Z,2.65
2023-11-08T17:19:31.111Z,3.03
2023-11-08T17:21:58.934Z,2.72
2023-11-08T17:24:27.025Z,3.17
2023-11-08T17:26:54.593Z,2.85
2023-11-08T17:29:22.073Z,3.05
2023-11-08T17:31:52.181Z,3.90
2023-11-08T17:34:20.066Z,2.80
2023-11-08T17:36:48.760Z,3.30
2023-11-08T17:39:16.388Z,3.08
2023-11-08T17:41:43.830Z,3.00
2023-11-08T17:44:11.860Z,2.80
2023-11-08T17:46:39.357Z,3.05
2023-11-08T17:49:06.959Z,3.10
2023-11-08T17:51:36.230Z,2.97
2023-11-08T17:54:04.521Z,3.55
2023-11-08T17:56:31.980Z,2.88
2023-11-08T17:58:59.540Z,3.05
2023-11-08T18:01:27.139Z,3.25
2023-11-08T18:03:54.880Z,3.70
2023-11-08T18:06:22.358Z,3.85
2023-11-08T18:08:49.806Z,3.17
2023-11-08T18:11:17.358Z,2.97
2023-11-08T18:13:48.909Z,2.70
2023-11-08T18:16:16.846Z,2.45
2023-11-08T18:18:45.731Z,2.97
2023-11-08T18:21:14.229Z,3.17
2023-11-08T18:23:42.846Z,3.13
2023-11-08T18:26:10.483Z,3.30
2023-11-08T18:28:38.000Z,3.85
2023-11-08T18:31:05.640Z,2.88
2023-11-08T18:33:33.118Z,3.65
2023-11-08T18:36:00.565Z,3.72
2023-11-08T18:38:29.999Z,3.50
2023-11-08T18:40:58.909Z,3.55
2023-11-08T18:43:27.424Z,2.75
2023-11-08T18:45:56.387Z,3.17
2023-11-08T18:48:28.472Z,3.67
2023-11-08T18:50:56.194Z,3.35
2023-11-08T18:53:25.151Z,3.67
2023-11-08T18:55:52.641Z,2.75
2023-11-08T18:58:24.266Z,3.38
2023-11-08T19:00:54.724Z,3.30
2023-11-08T19:05:50.431Z,2.70
2023-11-08T19:08:18.172Z,3.72
2023-11-08T19:10:45.848Z,2.95
2023-11-08T19:13:13.902Z,3.25
2023-11-08T19:15:41.563Z,3.85
2023-11-08T19:18:09.457Z,3.60
2023-11-08T19:20:37.090Z,3.78
2023-11-08T19:23:12.281Z,4.05
2023-11-08T19:25:47.999Z,3.95
2023-11-08T19:28:15.462Z,3.80
2023-11-08T19:30:43.897Z,3.85
2023-11-08T19:33:11.459Z,4.05
2023-11-08T19:35:43.095Z,3.25
2023-11-08T19:38:10.758Z,4.35
2023-11-08T19:40:38.407Z,3.78
2023-11-08T19:43:06.582Z,3.60
2023-11-08T19:45:36.888Z,3.35
2023-11-08T19:48:04.865Z,3.92
2023-11-08T19:50:32.752Z,3.60
2023-11-08T19:53:00.521Z,3.63
2023-11-08T19:55:27.995Z,4.68
2023-11-08T19:57:55.794Z,3.60
2023-11-08T20:00:23.522Z,3.30
2023-11-08T20:02:52.785Z,3.75
2023-11-08T20:05:20.545Z,3.67
2023-11-08T20:07:49.885Z,3.75
2023-11-08T20:10:18.561Z,4.00
2023-11-08T20:12:49.074Z,3.90
2023-11-08T20:15:17.272Z,4.28
2023-11-08T20:17:45.088Z,4.53
2023-11-08T20:20:14.260Z,4.47
2023-11-08T20:22:42.209Z,5.10
2023-11-08T20:25:10.806Z,4.82
2023-11-08T20:27:39.284Z,3.85
2023-11-08T20:30:08.631Z,3.90
2023-11-08T20:32:40.669Z,4.13
2023-11-08T20:35:09.744Z,4.22
2023-11-08T20:37:38.002Z,4.28
2023-11-08T20:40:10.296Z,3.80
2023-11-08T20:42:38.278Z,3.75
2023-11-08T20:45:07.240Z,3.78
2023-11-08T20:47:34.960Z,3.90
2023-11-08T20:50:03.573Z,4.18
2023-11-08T20:52:31.460Z,3.70
2023-11-08T20:55:00.486Z,4.38
